createdAt,value
2018-08-14T00:01:02.179Z,18.30
2018-08-14T00:03:29.939Z,18.40
2018-08-14T00:05:57.667Z,18.40
2018-08-14T00:08:25.539Z,18.40
2018-08-14T00:10:53.417Z,18.40
2018-08-14T00:13:21.105Z,18.40
2018-08-14T00:15:49.070Z,18.40
2018-08-14T00:18:17.367Z,18.40
2018-08-14T00:20:45.132Z,18.40
2018-08-14T00:23:12.891Z,18.40
2018-08-14T00:25:40.614Z,18.30
2018-08-14T00:28:09.641Z,18.30
2018-08-14T00:30:37.359Z,18.30
2018-08-14T00:33:05.568Z,18.20
2018-08-14T00:35:33.232Z,18.20
2018-08-14T00:38:00.988Z,18.20
2018-08-14T00:40:29.803Z,18.20
2018-08-14T00:42:59.041Z,18.30
2018-08-14T00:45:27.281Z,18.20
2018-08-14T00:47:54.989Z,18.20
2018-08-14T00:50:22.908Z,18.20
2018-08-14T00:52:50.809Z,18.00
2018-08-14T00:55:19.715Z,18.00
2018-08-14T00:57:48.193Z,18.00
2018-08-14T01:00:19.223Z,17.90
2018-08-14T01:02:47.906Z,17.80
2018-08-14T01:05:16.252Z,17.80
2018-08-14T01:07:45.215Z,17.90
2018-08-14T01:10:13.771Z,18.00
2018-08-14T01:12:45.508Z,17.90
2018-08-14T01:15:14.072Z,17.90
2018-08-14T01:17:42.532Z,17.90
2018-08-14T01:20:12.763Z,17.90
2018-08-14T01:22:40.736Z,18.00
2018-08-14T01:25:08.803Z,18.00
2018-08-14T01:27:36.871Z,18.00
2018-08-14T01:30:08.216Z,17.90
2018-08-14T01:32:36.221Z,17.70
2018-08-14T01:35:04.212Z,17.80
2018-08-14T01:37:31.927Z,17.80
2018-08-14T01:39:59.798Z,17.70
2018-08-14T01:42:27.672Z,17.80
2018-08-14T01:44:55.339Z,17.60
2018-08-14T01:47:23.287Z,17.60
2018-08-14T01:49:51.547Z,17.60
2018-08-14T01:52:19.340Z,17.50
2018-08-14T01:54:47.009Z,17.40
2018-08-14T01:57:15.363Z,17.40
2018-08-14T01:59:43.108Z,17.40
2018-08-14T02:02:10.724Z,17.40
2018-08-14T02:04:38.414Z,17.40
2018-08-14T02:07:06.378Z,17.50
2018-08-14T02:09:34.791Z,17.40
2018-08-14T02:12:02.494Z,17.50
2018-08-14T02:14:30.279Z,17.40
2018-08-14T02:16:58.065Z,17.50
2018-08-14T02:19:25.736Z,17.40
2018-08-14T02:21:53.935Z,17.50
2018-08-14T02:24:21.655Z,17.40
2018-08-14T02:26:49.443Z,17.50
2018-08-14T02:29:17.959Z,17.50
2018-08-14T02:31:45.811Z,17.50
2018-08-14T02:34:13.529Z,17.50
2018-08-14T02:36:41.246Z,17.30
2018-08-14T02:39:10.771Z,17.20
2018-08-14T02:41:38.552Z,17.20
2018-08-14T02:44:06.396Z,17.20
2018-08-14T02:46:33.999Z,17.00
2018-08-14T02:49:02.036Z,17.00
2018-08-14T02:51:30.015Z,17.10
2018-08-14T02:53:57.656Z,17.00
2018-08-14T02:56:25.339Z,16.90
2018-08-14T02:58:53.139Z,16.90
2018-08-14T03:01:21.028Z,16.90
2018-08-14T03:03:48.791Z,16.90
2018-08-14T03:06:16.424Z,16.80
2018-08-14T03:08:44.166Z,16.90
2018-08-14T03:11:11.852Z,16.80
2018-08-14T03:13:44.240Z,16.90
2018-08-14T03:16:11.900Z,16.90
2018-08-14T03:18:39.545Z,16.90
2018-08-14T03:21:07.360Z,17.00
2018-08-14T03:23:35.096Z,17.00
2018-08-14T03:26:02.728Z,17.00
2018-08-14T03:28:30.507Z,16.90
2018-08-14T03:30:58.137Z,16.90
2018-08-14T03:33:26.328Z,16.90
2018-08-14T03:35:54.070Z,17.00
2018-08-14T03:38:21.864Z,16.90
2018-08-14T03:40:49.431Z,16.90
2018-08-14T03:43:17.066Z,16.80
2018-08-14T03:45:44.712Z,16.70
2018-08-14T03:48:13.082Z,16.60
2018-08-14T03:50:41.280Z,16.60
2018-08-14T03:53:09.076Z,16.60
2018-08-14T03:55:37.087Z,16.60
2018-08-14T03:58:05.532Z,16.50
2018-08-14T04:00:33.271Z,16.50
2018-08-14T04:03:01.109Z,16.50
2018-08-14T04:05:28.647Z,16.50
2018-08-14T04:07:56.391Z,16.50
2018-08-14T04:10:24.211Z,16.50
2018-08-14T04:12:51.871Z,16.50
2018-08-14T04:15:19.428Z,16.50
2018-08-14T04:17:47.335Z,16.40
2018-08-14T04:20:15.191Z,16.40
2018-08-14T04:22:42.920Z,16.50
2018-08-14T04:25:11.156Z,16.50
2018-08-14T04:27:39.383Z,16.50
2018-08-14T04:30:09.591Z,16.30
2018-08-14T04:32:37.355Z,16.40
2018-08-14T04:35:05.080Z,16.50
2018-08-14T04:37:32.648Z,16.40
2018-08-14T04:40:00.225Z,16.40
2018-08-14T04:42:27.892Z,16.50
2018-08-14T04:44:55.564Z,16.50
2018-08-14T04:47:23.206Z,16.60
2018-08-14T04:49:50.882Z,16.60
2018-08-14T04:52:18.536Z,16.50
2018-08-14T04:54:46.308Z,16.50
2018-08-14T04:57:13.979Z,16.50
2018-08-14T04:59:41.712Z,16.60
2018-08-14T05:02:09.555Z,16.60
2018-08-14T05:04:37.892Z,16.60
2018-08-14T05:07:05.900Z,16.60
2018-08-14T05:09:33.600Z,16.70
2018-08-14T05:12:02.584Z,16.60
2018-08-14T05:14:30.357Z,16.60
2018-08-14T05:16:57.999Z,16.60
2018-08-14T05:19:25.667Z,16.50
2018-08-14T05:21:53.344Z,16.60
2018-08-14T05:24:20.919Z,16.60
2018-08-14T05:26:49.140Z,16.60
2018-08-14T05:29:16.984Z,16.70
2018-08-14T05:31:44.808Z,16.80
2018-08-14T05:34:12.948Z,16.90
2018-08-14T05:36:40.874Z,16.90
2018-08-14T05:39:10.110Z,17.10
2018-08-14T05:41:37.809Z,17.00
2018-08-14T05:44:14.735Z,17.20
2018-08-14T05:46:42.483Z,17.10
2018-08-14T05:49:10.176Z,17.10
2018-08-14T05:51:37.967Z,17.20
2018-08-14T05:54:05.605Z,17.30
2018-08-14T05:56:33.375Z,17.30
2018-08-14T05:59:01.895Z,17.50
2018-08-14T06:01:29.531Z,17.50
2018-08-14T06:03:57.412Z,17.60
2018-08-14T06:06:25.276Z,17.60
2018-08-14T06:08:53.020Z,17.80
2018-08-14T06:11:20.819Z,17.90
2018-08-14T06:13:48.555Z,17.90
2018-08-14T06:16:16.220Z,17.90
2018-08-14T06:18:43.768Z,17.80
2018-08-14T06:21:11.432Z,17.90
2018-08-14T06:23:39.128Z,17.90
2018-08-14T06:26:07.719Z,17.90
2018-08-14T06:28:35.544Z,17.90
2018-08-14T06:31:03.412Z,18.00
2018-08-14T06:33:31.126Z,18.20
2018-08-14T06:35:59.455Z,18.20
2018-08-14T06:38:27.167Z,18.20
2018-08-14T06:40:55.284Z,18.20
2018-08-14T06:43:23.462Z,18.20
2018-08-14T06:45:51.085Z,18.30
2018-08-14T06:48:18.958Z,18.20
2018-08-14T06:50:46.636Z,18.10
2018-08-14T06:53:14.271Z,18.20
2018-08-14T06:55:42.492Z,18.20
2018-08-14T06:58:10.248Z,18.40
2018-08-14T07:00:37.894Z,18.40
2018-08-14T07:03:05.933Z,18.30
2018-08-14T07:05:33.843Z,18.20
2018-08-14T07:08:01.699Z,18.20
2018-08-14T07:10:29.311Z,18.00
2018-08-14T07:12:57.016Z,18.10
2018-08-14T07:15:24.712Z,18.10
2018-08-14T07:17:53.197Z,18.40
2018-08-14T07:20:20.984Z,18.60
2018-08-14T07:22:48.648Z,18.70
2018-08-14T07:25:18.091Z,18.90
2018-08-14T07:27:45.824Z,19.00
2018-08-14T07:30:16.536Z,19.00
2018-08-14T07:32:44.388Z,19.00
2018-08-14T07:35:11.991Z,19.10
2018-08-14T07:37:40.484Z,19.20
2018-08-14T07:40:08.395Z,19.40
2018-08-14T07:42:36.020Z,19.60
2018-08-14T07:45:05.059Z,19.60
2018-08-14T07:47:32.676Z,19.40
2018-08-14T07:50:00.372Z,19.40
2018-08-14T07:52:28.451Z,19.50
2018-08-14T07:54:56.105Z,19.60
2018-08-14T07:57:23.719Z,19.30
2018-08-14T07:59:51.257Z,19.50
2018-08-14T08:02:18.821Z,19.70
2018-08-14T08:04:46.448Z,19.70
2018-08-14T08:07:14.311Z,19.80
2018-08-14T08:09:41.964Z,19.80
2018-08-14T08:12:09.661Z,20.10
2018-08-14T08:14:37.727Z,20.30
2018-08-14T08:17:05.923Z,20.30
2018-08-14T08:19:33.544Z,20.40
2018-08-14T08:22:01.263Z,20.60
2018-08-14T08:24:29.112Z,20.40
2018-08-14T08:26:56.748Z,20.60
2018-08-14T08:29:24.384Z,20.70
2018-08-14T08:31:52.344Z,21.00
2018-08-14T08:34:19.990Z,21.00
2018-08-14T08:36:47.667Z,21.30
2018-08-14T08:39:15.516Z,21.40
2018-08-14T08:41:43.354Z,21.20
2018-08-14T08:44:10.915Z,21.20
2018-08-14T08:46:39.260Z,21.20
2018-08-14T08:49:06.942Z,21.40
2018-08-14T08:51:34.880Z,21.30
2018-08-14T08:54:02.683Z,21.60
2018-08-14T08:56:30.412Z,21.40
2018-08-14T08:58:58.117Z,21.50
2018-08-14T09:01:26.112Z,21.60
2018-08-14T09:03:53.816Z,21.70
2018-08-14T09:06:21.440Z,21.90
2018-08-14T09:08:49.155Z,21.80
2018-08-14T09:11:16.931Z,21.90
2018-08-14T09:13:44.767Z,21.90
2018-08-14T09:16:12.595Z,22.10
2018-08-14T09:18:40.366Z,22.00
2018-08-14T09:21:08.129Z,22.00
2018-08-14T09:23:36.867Z,22.10
2018-08-14T09:26:04.557Z,21.40
2018-08-14T09:28:32.249Z,21.30
2018-08-14T09:31:00.117Z,21.60
2018-08-14T09:33:27.675Z,21.90
2018-08-14T09:35:55.488Z,22.00
2018-08-14T09:38:23.311Z,22.00
2018-08-14T09:40:51.283Z,22.40
2018-08-14T09:43:19.064Z,22.30
2018-08-14T09:45:48.717Z,22.20
2018-08-14T09:48:16.734Z,22.10
2018-08-14T09:50:44.507Z,22.00
2018-08-14T09:53:12.312Z,21.90
2018-08-14T09:55:39.980Z,21.90
2018-08-14T09:58:07.845Z,22.10
2018-08-14T10:00:41.595Z,21.80
2018-08-14T10:03:17.700Z,22.00
2018-08-14T10:06:53.744Z,22.40
2018-08-14T10:09:22.534Z,22.70
2018-08-14T10:11:50.259Z,23.20
2018-08-14T10:14:18.251Z,23.30
2018-08-14T10:16:46.049Z,23.60
2018-08-14T10:19:13.820Z,23.90
2018-08-14T10:21:41.551Z,24.30
2018-08-14T10:24:09.239Z,24.00
2018-08-14T10:26:37.074Z,23.70
2018-08-14T10:29:04.651Z,23.50
2018-08-14T10:31:32.463Z,23.50
2018-08-14T10:34:00.633Z,23.40
2018-08-14T10:36:28.273Z,23.60
2018-08-14T10:38:55.906Z,23.80
2018-08-14T10:41:23.583Z,23.20
2018-08-14T10:43:51.307Z,23.60
2018-08-14T10:46:19.592Z,23.80
2018-08-14T10:48:47.339Z,23.90
2018-08-14T10:51:15.101Z,24.10
2018-08-14T10:53:42.856Z,24.50
2018-08-14T10:56:10.705Z,24.60
2018-08-14T10:58:38.449Z,24.90
2018-08-14T11:01:06.103Z,25.20
2018-08-14T11:03:33.866Z,24.80
2018-08-14T11:06:01.612Z,24.90
2018-08-14T11:08:29.372Z,24.80
2018-08-14T11:11:02.803Z,24.40
2018-08-14T11:13:31.419Z,23.90
2018-08-14T11:15:59.260Z,23.90
2018-08-14T11:18:26.931Z,23.80
2018-08-14T11:20:55.269Z,23.90
2018-08-14T11:23:23.063Z,23.70
2018-08-14T11:25:50.668Z,23.30
2018-08-14T11:28:18.540Z,23.20
2018-08-14T11:30:46.140Z,23.00
2018-08-14T11:33:14.051Z,23.20
2018-08-14T11:36:18.164Z,23.40
2018-08-14T11:38:45.779Z,23.60
2018-08-14T11:41:13.669Z,23.70
2018-08-14T11:43:41.344Z,24.00
2018-08-14T11:46:09.180Z,24.10
2018-08-14T11:48:36.995Z,24.00
2018-08-14T11:51:04.724Z,24.50
2018-08-14T11:53:32.472Z,24.60
2018-08-14T11:56:00.815Z,24.80
2018-08-14T11:58:28.388Z,25.10
2018-08-14T12:00:56.059Z,25.40
2018-08-14T12:03:23.799Z,25.20
2018-08-14T12:05:51.511Z,24.50
2018-08-14T12:08:19.283Z,24.40
2018-08-14T12:10:47.161Z,24.50
2018-08-14T12:13:14.811Z,24.50
2018-08-14T12:15:42.605Z,24.40
2018-08-14T12:18:10.148Z,24.00
2018-08-14T12:20:38.465Z,24.00
2018-08-14T12:23:06.391Z,24.20
2018-08-14T12:25:34.085Z,24.60
2018-08-14T12:28:01.818Z,24.90
2018-08-14T12:30:29.487Z,25.40
2018-08-14T12:32:57.087Z,25.20
2018-08-14T12:35:24.844Z,24.70
2018-08-14T12:37:53.059Z,24.60
2018-08-14T12:40:20.753Z,24.60
2018-08-14T12:42:48.488Z,24.20
2018-08-14T12:45:19.074Z,24.30
2018-08-14T12:47:46.784Z,24.60
2018-08-14T12:50:15.891Z,24.50
2018-08-14T12:52:43.712Z,24.60
2018-08-14T12:55:12.145Z,24.50
2018-08-14T12:57:39.984Z,24.40
2018-08-14T13:00:30.494Z,24.50
2018-08-14T13:02:58.292Z,23.90
2018-08-14T13:05:26.763Z,24.00
2018-08-14T13:07:54.727Z,24.20
2018-08-14T13:10:22.635Z,24.10
2018-08-14T13:12:50.996Z,24.10
2018-08-14T13:15:18.644Z,23.90
2018-08-14T13:18:06.110Z,24.30
2018-08-14T13:20:33.983Z,24.50
2018-08-14T13:23:02.237Z,25.00
2018-08-14T13:25:29.906Z,25.10
2018-08-14T13:27:57.722Z,25.10
2018-08-14T13:30:25.316Z,24.80
2018-08-14T13:32:53.305Z,24.60
2018-08-14T13:35:21.031Z,24.60
2018-08-14T13:37:53.431Z,24.70
2018-08-14T13:40:21.219Z,25.00
2018-08-14T13:42:48.888Z,25.10
2018-08-14T13:45:16.635Z,25.00
2018-08-14T13:47:44.319Z,25.00
2018-08-14T13:50:12.815Z,25.20
2018-08-14T13:52:40.495Z,24.80
2018-08-14T13:55:12.371Z,24.80
2018-08-14T13:57:40.732Z,24.90
2018-08-14T14:00:10.540Z,25.10
2018-08-14T14:02:38.575Z,24.80
2018-08-14T14:05:07.564Z,24.80
2018-08-14T14:07:35.446Z,25.20
2018-08-14T14:10:04.080Z,25.10
2018-08-14T14:12:31.765Z,24.90
2018-08-14T14:14:59.580Z,24.10
2018-08-14T14:17:27.248Z,24.00
2018-08-14T14:19:54.848Z,24.00
2018-08-14T14:22:22.473Z,24.00
2018-08-14T14:24:50.160Z,23.90
2018-08-14T14:27:17.932Z,23.60
2018-08-14T14:29:45.811Z,23.70
2018-08-14T14:32:14.167Z,23.60
2018-08-14T14:34:41.979Z,23.30
2018-08-14T14:37:09.725Z,23.30
2018-08-14T14:39:37.501Z,23.20
2018-08-14T14:42:05.266Z,23.20
2018-08-14T14:44:33.095Z,23.30
2018-08-14T14:47:00.694Z,23.30
2018-08-14T14:49:28.558Z,23.00
2018-08-14T14:51:56.362Z,23.00
2018-08-14T14:54:23.968Z,23.10
2018-08-14T14:56:51.800Z,23.30
2018-08-14T14:59:20.458Z,23.30
2018-08-14T15:01:48.171Z,23.40
2018-08-14T15:04:15.856Z,23.50
2018-08-14T15:06:43.785Z,23.60
2018-08-14T15:09:12.692Z,23.60
2018-08-14T15:11:40.992Z,23.60
2018-08-14T15:14:09.463Z,23.80
2018-08-14T15:16:37.220Z,23.60
2018-08-14T15:19:16.558Z,23.60
2018-08-14T15:21:44.258Z,23.60
2018-08-14T15:24:12.001Z,23.80
2018-08-14T15:26:40.880Z,23.70
2018-08-14T15:29:09.648Z,23.90
2018-08-14T15:31:39.615Z,23.90
2018-08-14T15:34:08.984Z,23.90
2018-08-14T15:36:36.600Z,24.00
2018-08-14T15:39:07.776Z,23.80
2018-08-14T15:41:35.457Z,24.00
2018-08-14T15:44:03.238Z,24.10
2018-08-14T15:46:31.072Z,23.90
2018-08-14T15:48:58.800Z,23.90
2018-08-14T15:51:26.490Z,23.90
2018-08-14T15:53:54.297Z,23.70
2018-08-14T15:56:22.368Z,23.80
2018-08-14T15:58:50.583Z,23.70
2018-08-14T16:01:18.254Z,23.70
2018-08-14T16:03:46.080Z,23.60
2018-08-14T16:06:13.787Z,23.60
2018-08-14T16:08:42.797Z,23.60
2018-08-14T16:11:10.496Z,23.20
2018-08-14T16:13:38.281Z,23.30
2018-08-14T16:16:06.234Z,23.10
2018-08-14T16:18:34.674Z,23.20
2018-08-14T16:21:02.516Z,23.10
2018-08-14T16:23:30.439Z,23.10
2018-08-14T16:25:58.107Z,23.20
2018-08-14T16:28:25.948Z,23.40
2018-08-14T16:30:53.865Z,23.40
2018-08-14T16:33:21.768Z,23.30
2018-08-14T16:35:49.564Z,23.20
2018-08-14T16:38:17.126Z,23.10
2018-08-14T16:40:45.088Z,23.10
2018-08-14T16:43:12.779Z,23.10
2018-08-14T16:45:40.445Z,23.10
2018-08-14T16:48:08.283Z,23.10
2018-08-14T16:50:36.124Z,23.10
2018-08-14T16:53:03.831Z,23.10
2018-08-14T16:55:31.407Z,23.20
2018-08-14T16:57:59.164Z,23.00
2018-08-14T17:00:32.515Z,23.00
2018-08-14T17:03:01.137Z,22.80
2018-08-14T17:05:29.006Z,22.80
2018-08-14T17:07:56.725Z,22.80
2018-08-14T17:10:25.610Z,22.70
2018-08-14T17:12:54.251Z,22.60
2018-08-14T17:15:22.556Z,22.50
2018-08-14T17:17:50.460Z,22.40
2018-08-14T17:20:17.383Z,22.20
2018-08-14T17:22:45.108Z,22.20
2018-08-14T17:25:13.232Z,22.30
2018-08-14T17:27:44.167Z,22.30
2018-08-14T17:30:14.280Z,22.30
2018-08-14T17:32:42.985Z,22.30
2018-08-14T17:35:10.505Z,22.40
2018-08-14T17:37:38.580Z,22.40
2018-08-14T17:40:09.052Z,22.40
2018-08-14T17:42:37.432Z,22.50
2018-08-14T17:45:06.595Z,22.40
2018-08-14T17:47:34.526Z,22.30
2018-08-14T17:50:02.404Z,22.20
2018-08-14T17:52:30.043Z,22.10
2018-08-14T17:54:57.583Z,22.10
2018-08-14T17:57:25.363Z,22.00
2018-08-14T17:59:53.000Z,21.90
2018-08-14T18:02:20.707Z,21.80
2018-08-14T18:04:48.429Z,21.60
2018-08-14T18:07:16.158Z,21.60
2018-08-14T18:09:43.982Z,21.50
2018-08-14T18:12:11.684Z,21.60
2018-08-14T18:14:39.911Z,21.50
2018-08-14T18:17:07.599Z,21.50
2018-08-14T18:19:35.304Z,21.30
2018-08-14T18:22:03.100Z,21.30
2018-08-14T18:24:30.699Z,21.20
2018-08-14T18:26:58.536Z,21.30
2018-08-14T18:29:26.347Z,21.30
2018-08-14T18:31:54.020Z,21.30
2018-08-14T18:34:21.895Z,21.20
2018-08-14T18:36:49.559Z,21.20
2018-08-14T18:39:17.216Z,21.20
2018-08-14T18:41:44.968Z,21.30
2018-08-14T18:44:13.044Z,21.30
2018-08-14T18:46:42.174Z,21.20
2018-08-14T18:49:09.892Z,21.20
2018-08-14T18:51:37.638Z,21.10
2018-08-14T18:54:05.610Z,21.10
2018-08-14T18:56:33.201Z,21.20
2018-08-14T18:59:00.831Z,21.10
2018-08-14T19:01:29.291Z,21.00
2018-08-14T19:03:57.149Z,21.10
2018-08-14T19:06:24.776Z,21.00
2018-08-14T19:08:52.519Z,21.00
2018-08-14T19:11:20.543Z,20.90
2018-08-14T19:13:48.389Z,20.90
2018-08-14T19:16:16.231Z,21.00
2018-08-14T19:18:43.918Z,21.00
2018-08-14T19:21:11.564Z,20.90
2018-08-14T19:23:39.783Z,20.90
2018-08-14T19:26:07.689Z,20.80
2018-08-14T19:28:36.138Z,20.80
2018-08-14T19:31:03.824Z,20.80
2018-08-14T19:33:31.519Z,20.80
2018-08-14T19:35:59.203Z,20.80
2018-08-14T19:38:26.980Z,20.70
2018-08-14T19:40:54.826Z,20.70
2018-08-14T19:43:22.447Z,20.70
2018-08-14T19:45:50.011Z,20.60
2018-08-14T19:48:17.731Z,20.60
2018-08-14T19:50:45.394Z,20.80
2018-08-14T19:53:13.017Z,20.70
2018-08-14T19:55:40.621Z,20.70
2018-08-14T19:58:08.355Z,20.70
2018-08-14T20:00:36.973Z,20.70
2018-08-14T20:03:04.726Z,20.70
2018-08-14T20:05:32.348Z,20.50
2018-08-14T20:08:00.052Z,20.50
2018-08-14T20:10:27.792Z,20.60
2018-08-14T20:12:55.620Z,20.50
2018-08-14T20:15:28.968Z,20.50
2018-08-14T20:17:56.551Z,20.40
2018-08-14T20:20:25.025Z,20.40
2018-08-14T20:22:52.725Z,20.30
2018-08-14T20:25:20.547Z,20.20
2018-08-14T20:27:48.141Z,20.20
2018-08-14T20:30:17.161Z,20.10
2018-08-14T20:32:46.101Z,20.10
2018-08-14T20:35:15.023Z,20.10
2018-08-14T20:37:43.634Z,20.10
2018-08-14T20:40:13.939Z,20.10
2018-08-14T20:42:41.572Z,20.10
2018-08-14T20:45:10.538Z,20.10
2018-08-14T20:47:38.223Z,20.00
2018-08-14T20:50:08.339Z,19.90
2018-08-14T20:52:36.411Z,19.70
2018-08-14T20:55:05.112Z,19.50
2018-08-14T20:57:32.678Z,19.30
2018-08-14T21:00:00.460Z,19.30
2018-08-14T21:02:28.067Z,19.20
2018-08-14T21:04:55.765Z,19.00
2018-08-14T21:07:23.431Z,18.70
2018-08-14T21:09:51.226Z,18.70
2018-08-14T21:12:23.364Z,18.60
2018-08-14T21:14:51.001Z,18.40
2018-08-14T21:17:19.428Z,18.20
2018-08-14T21:19:47.048Z,18.10
2018-08-14T21:22:14.759Z,18.00
2018-08-14T21:24:42.435Z,18.00
2018-08-14T21:27:10.343Z,18.00
2018-08-14T21:29:38.172Z,18.00
2018-08-14T21:32:05.799Z,18.00
2018-08-14T21:34:33.507Z,18.00
2018-08-14T21:37:01.860Z,18.00
2018-08-14T21:39:29.660Z,17.90
2018-08-14T21:41:57.416Z,17.90
2018-08-14T21:44:25.084Z,17.90
2018-08-14T21:46:52.708Z,17.90
2018-08-14T21:49:20.414Z,17.90
2018-08-14T21:51:48.972Z,17.90
2018-08-14T21:54:16.670Z,17.80
2018-08-14T21:56:44.301Z,17.80
2018-08-14T21:59:12.127Z,17.70
2018-08-14T22:01:39.728Z,17.70
2018-08-14T22:04:07.622Z,17.60
2018-08-14T22:06:35.403Z,17.50
2018-08-14T22:09:04.137Z,17.40
2018-08-14T22:11:32.008Z,17.20
2018-08-14T22:14:00.368Z,17.20
2018-08-14T22:16:28.134Z,17.10
2018-08-14T22:18:55.879Z,17.10
2018-08-14T22:21:23.619Z,17.00
2018-08-14T22:23:51.316Z,17.00
2018-08-14T22:26:19.116Z,16.90
2018-08-14T22:28:46.829Z,16.80
2018-08-14T22:31:14.580Z,16.60
2018-08-14T22:33:42.241Z,16.50
2018-08-14T22:36:10.012Z,16.50
2018-08-14T22:38:37.628Z,16.50
2018-08-14T22:41:05.576Z,16.50
2018-08-14T22:43:33.262Z,16.50
2018-08-14T22:46:01.118Z,16.50
2018-08-14T22:48:29.374Z,16.50
2018-08-14T22:50:57.660Z,16.50
2018-08-14T22:53:25.903Z,16.50
2018-08-14T22:55:53.504Z,16.50
2018-08-14T22:58:21.231Z,16.50
2018-08-14T23:00:49.527Z,16.50
2018-08-14T23:03:17.336Z,16.40
2018-08-14T23:05:45.140Z,16.40
2018-08-14T23:08:12.752Z,16.40
2018-08-14T23:10:40.452Z,16.50
2018-08-14T23:13:08.135Z,16.50
2018-08-14T23:15:36.007Z,16.50
2018-08-14T23:18:04.440Z,16.50
2018-08-14T23:20:32.048Z,16.50
2018-08-14T23:22:59.719Z,16.40
2018-08-14T23:25:27.475Z,16.40
2018-08-14T23:27:55.254Z,16.30
2018-08-14T23:30:22.944Z,16.30
2018-08-14T23:32:51.129Z,16.40
2018-08-14T23:35:18.856Z,16.50
2018-08-14T23:37:46.679Z,16.60
2018-08-14T23:40:14.415Z,16.60
2018-08-14T23:42:42.143Z,16.60
2018-08-14T23:45:10.655Z,16.70
2018-08-14T23:47:43.171Z,16.60
2018-08-14T23:50:11.667Z,16.60
2018-08-14T23:52:39.811Z,16.60
2018-08-14T23:55:08.400Z,16.50
2018-08-14T23:57:36.272Z,16.40
